»·PEaware :: N9350K KWHP-KCNO

N9350K :: KWHP-KCNO

FLIGHT INFORMATION

Flight Status: Arrived
Operator: Privately registered:
United States
More flights under this callsign
Pilot: Reece H. (589)
Aircraft: PIPER PA-28R-201 ARROW
(P28R)
More flights by this aircraft type
Origin: KWHP Whiteman
United States
Destination: KCNO Chino
United States
More flights between these airports :: More routes between these airports
Route: +V186 PDZ
File this flight plan on PilotEdge
Remarks: TEC route BURN8
Altitude:
(Current/Filed)
5,000ft
Speed:
(Current/Filed)
140kts
Departed: 01-Jan-15 05:54 PM
Arrived: 01-Jan-15 06:37 PM
Distance/Time
Traveled:
42nm/0:43
Distance/Time
To Go:
Arrived

Flight Plot

Page will automatically refresh every two minutes.


Map Options




Map Legend


Flown Route
Filed Route
Departure Airport
Arrival Airport
Navaid (VOR, NDB)
Fix

Horizontal Profiles

Position Reports

Time Latitude Longitude Heading Altitude Ground
Speed
01-Jan-15 17:27 34.259487 -118.412267 136 992ft 0kts
01-Jan-15 17:28 34.259487 -118.412267 136 992ft 0kts
01-Jan-15 17:29 34.259487 -118.412267 136 992ft 0kts
01-Jan-15 17:30 34.259487 -118.412267 136 992ft 0kts
01-Jan-15 17:31 34.259466 -118.412245 139 992ft 0kts
01-Jan-15 17:32 34.259466 -118.412245 139 992ft 0kts
01-Jan-15 17:33 34.259466 -118.412245 139 992ft 0kts
01-Jan-15 17:34 34.259466 -118.412245 139 992ft 0kts
01-Jan-15 17:35 34.259466 -118.412245 139 992ft 0kts
01-Jan-15 17:36 34.259466 -118.412245 139 992ft 0kts
01-Jan-15 17:37 34.259466 -118.412245 139 992ft 0kts
01-Jan-15 17:38 34.259466 -118.412245 139 992ft 0kts
01-Jan-15 17:39 34.259466 -118.412245 139 992ft 0kts
01-Jan-15 17:40 34.259466 -118.412245 139 992ft 0kts
01-Jan-15 17:41 34.259466 -118.412245 139 992ft 0kts
01-Jan-15 17:42 34.259466 -118.412245 139 992ft 0kts
01-Jan-15 17:43 34.259466 -118.412245 139 992ft 0kts
01-Jan-15 17:44 34.259466 -118.412245 139 992ft 0kts
01-Jan-15 17:45 34.259466 -118.412245 139 992ft 0kts
01-Jan-15 17:46 34.259466 -118.412245 139 992ft 0kts
01-Jan-15 17:47 34.257439 -118.410876 138 982ft 15kts
01-Jan-15 17:48 34.255532 -118.408902 159 971ft 0kts
01-Jan-15 17:49 34.255532 -118.408902 159 971ft 0kts
01-Jan-15 17:50 34.258639 -118.412715 321 1009ft 84kts
01-Jan-15 17:51 34.272360 -118.434117 276 2307ft 93kts
01-Jan-15 17:52 34.277605 -118.464211 282 3541ft 93kts
01-Jan-15 17:53 34.283746 -118.496095 277 4533ft 99kts
01-Jan-15 17:54 34.263922 -118.506815 161 5025ft 121kts
01-Jan-15 17:55 34.230454 -118.492299 157 5052ft 129kts
01-Jan-15 17:56 34.210755 -118.458291 104 5029ft 142kts
01-Jan-15 17:57 34.200539 -118.413062 111 5006ft 142kts
01-Jan-15 17:58 34.187071 -118.369338 108 5020ft 143kts
01-Jan-15 17:59 34.174287 -118.325301 112 4987ft 142kts
01-Jan-15 18:00 34.161567 -118.281370 117 4987ft 141kts
01-Jan-15 18:01 34.144917 -118.238751 117 4986ft 141kts
01-Jan-15 18:02 34.130149 -118.195581 115 5013ft 143kts
01-Jan-15 18:03 34.116470 -118.151169 107 5028ft 145kts
01-Jan-15 18:04 34.104144 -118.105728 109 5104ft 143kts
01-Jan-15 18:05 34.090998 -118.060649 113 5061ft 149kts
01-Jan-15 18:06 34.075145 -118.016070 112 5039ft 150kts
01-Jan-15 18:07 34.061677 -117.969828 106 5018ft 148kts
01-Jan-15 18:08 34.048624 -117.923109 110 5023ft 147kts
01-Jan-15 18:09 34.035856 -117.882039 108 5107ft 145kts
01-Jan-15 18:10 34.021596 -117.836767 115 5029ft 149kts
01-Jan-15 18:11 34.005096 -117.792335 110 5036ft 146kts
01-Jan-15 18:12 33.992152 -117.747689 99 5071ft 148kts
01-Jan-15 18:13 33.985359 -117.699210 99 4988ft 141kts
01-Jan-15 18:14 33.977540 -117.652496 102 4887ft 146kts
01-Jan-15 18:15 33.968289 -117.605438 98 4669ft 147kts
01-Jan-15 18:16 33.964133 -117.558464 93 4631ft 140kts
01-Jan-15 18:17 33.960643 -117.511914 94 4629ft 137kts
01-Jan-15 18:18 33.957457 -117.466119 95 4597ft 141kts
01-Jan-15 18:19 33.953273 -117.420298 99 4661ft 136kts
01-Jan-15 18:20 33.944419 -117.375490 100 4594ft 140kts
01-Jan-15 18:21 33.928443 -117.336718 141 4672ft 137kts
01-Jan-15 18:22 33.899237 -117.310798 92 4557ft 141kts
01-Jan-15 18:23 33.928765 -117.303054 318 4316ft 137kts
01-Jan-15 18:24 33.943478 -117.341891 275 4068ft 134kts
01-Jan-15 18:25 33.947847 -117.385246 276 3916ft 130kts
01-Jan-15 18:26 33.951254 -117.419898 278 3936ft 125kts
01-Jan-15 18:27 33.957736 -117.466799 279 3774ft 117kts
01-Jan-15 18:28 33.962927 -117.505862 279 3049ft 119kts
01-Jan-15 18:29 33.966987 -117.538199 277 2384ft 117kts
01-Jan-15 18:30 33.971180 -117.575018 277 1530ft 106kts
01-Jan-15 18:31 33.975245 -117.606293 275 1089ft 91kts
01-Jan-15 18:32 33.975783 -117.634179 268 632ft 68kts
01-Jan-15 18:33 33.976541 -117.644133 2 620ft 1kts
01-Jan-15 18:34 33.976788 -117.643910 68 620ft 7kts
01-Jan-15 18:35 33.976890 -117.639509 88 628ft 16kts
01-Jan-15 18:36 33.977282 -117.637660 359 631ft 0kts
01-Jan-15 18:37 33.977282 -117.637660 359 631ft 0kts
01-Jan-15 18:38 33.977282 -117.637660 359 631ft 0kts
01-Jan-15 18:39 33.977282 -117.637660 359 631ft 0kts
01-Jan-15 18:40 33.977282 -117.637660 359 631ft 0kts
01-Jan-15 18:41 33.977282 -117.637660 359 631ft 0kts
01-Jan-15 18:42 33.977282 -117.637660 359 631ft 0kts
01-Jan-15 18:43 33.977282 -117.637660 359 631ft 0kts
01-Jan-15 18:44 33.977282 -117.637660 359 631ft 0kts
01-Jan-15 18:45 33.977282 -117.637660 359 631ft 0kts
01-Jan-15 18:46 33.977282 -117.637660 359 631ft 0kts
01-Jan-15 18:47 33.977282 -117.637660 359 631ft 0kts
01-Jan-15 18:48 33.977282 -117.637660 359 631ft 0kts

Navigation Log

Ident Type
Flight plan parsing failed, navigation log unavailable